DLH4AR EDDF-LICC
Flight info
| Callsign | DLH4AR |
|---|---|
| Flight time | N/A |
| Altitude | 33000 |
| Route | ANEKI2L/18 ANEKI Y163 NATOR DCT TRA DCT RIPUS DCT GERSA DCT SOSON DCT ODINA DCT SRN DCT GILIO DCT TURMO DCT LURON DCT BEKIV DCT ENEPA DCT LIBRO |
| Aircraft | A321/M-SDE3FGHIRWY/LB1 |
Departure
| Time | 2026-04-17 12:04 |
|---|---|
| Airport | Frankfurt Main Airport (EDDF) |
Arrival
| Time | N/A |
|---|---|
| Airport | Catania-Fontanarossa Airport (LICC) |
| Time | Latitude | Longitude | Altitude | Speed | Heading |
|---|---|---|---|---|---|
| 2026-04-17 11:23 | 50.04698 | 8.57094 | 356 ft | 0 kts | 115° |
| 2026-04-17 11:49 | 50.04708 | 8.57060 | 357 ft | 4 kts | 115° |
| 2026-04-17 11:49 | 50.04719 | 8.57025 | 359 ft | 4 kts | 132° |
| 2026-04-17 11:50 | 50.04740 | 8.57008 | 358 ft | 4 kts | 182° |
| 2026-04-17 11:50 | 50.04766 | 8.57016 | 359 ft | 4 kts | 201° |
| 2026-04-17 11:50 | 50.04777 | 8.57023 | 358 ft | 0 kts | 205° |
| 2026-04-17 11:54 | 50.04774 | 8.57020 | 356 ft | 1 kts | 205° |
| 2026-04-17 11:54 | 50.04765 | 8.57014 | 360 ft | 2 kts | 205° |
| 2026-04-17 11:55 | 50.04751 | 8.57004 | 356 ft | 3 kts | 205° |
| 2026-04-17 11:55 | 50.04719 | 8.56981 | 359 ft | 7 kts | 205° |
| 2026-04-17 11:55 | 50.04667 | 8.56944 | 358 ft | 9 kts | 204° |
| 2026-04-17 11:55 | 50.04610 | 8.56910 | 356 ft | 9 kts | 200° |
| 2026-04-17 11:56 | 50.04557 | 8.56880 | 358 ft | 6 kts | 199° |
| 2026-04-17 11:56 | 50.04519 | 8.56876 | 359 ft | 5 kts | 184° |
| 2026-04-17 11:56 | 50.04478 | 8.56865 | 359 ft | 7 kts | 195° |
| 2026-04-17 11:56 | 50.04444 | 8.56801 | 366 ft | 10 kts | 247° |
| 2026-04-17 11:57 | 50.04416 | 8.56684 | 358 ft | 13 kts | 251° |
| 2026-04-17 11:57 | 50.04383 | 8.56534 | 364 ft | 16 kts | 251° |
| 2026-04-17 11:57 | 50.04341 | 8.56363 | 358 ft | 16 kts | 248° |
| 2026-04-17 11:57 | 50.04308 | 8.56226 | 358 ft | 10 kts | 250° |
| 2026-04-17 11:58 | 50.04281 | 8.56111 | 361 ft | 13 kts | 250° |
| 2026-04-17 11:58 | 50.04246 | 8.55967 | 358 ft | 16 kts | 249° |
| 2026-04-17 11:58 | 50.04204 | 8.55792 | 360 ft | 19 kts | 250° |
| 2026-04-17 11:58 | 50.04157 | 8.55588 | 353 ft | 22 kts | 251° |
| 2026-04-17 11:59 | 50.04106 | 8.55360 | 359 ft | 23 kts | 248° |
| 2026-04-17 11:59 | 50.04045 | 8.55126 | 356 ft | 24 kts | 250° |
| 2026-04-17 11:59 | 50.03986 | 8.54871 | 354 ft | 26 kts | 249° |
| 2026-04-17 11:59 | 50.03920 | 8.54589 | 355 ft | 29 kts | 251° |
| 2026-04-17 12:00 | 50.03826 | 8.54307 | 350 ft | 30 kts | 216° |
| 2026-04-17 12:00 | 50.03767 | 8.54059 | 344 ft | 26 kts | 249° |
| 2026-04-17 12:00 | 50.03697 | 8.53791 | 344 ft | 28 kts | 250° |
| 2026-04-17 12:00 | 50.03645 | 8.53573 | 336 ft | 1 kts | 246° |
| 2026-04-17 12:01 | 50.03636 | 8.53540 | 340 ft | 5 kts | 246° |
| 2026-04-17 12:01 | 50.03616 | 8.53470 | 338 ft | 9 kts | 246° |
| 2026-04-17 12:01 | 50.03588 | 8.53368 | 338 ft | 12 kts | 247° |
| 2026-04-17 12:01 | 50.03555 | 8.53231 | 338 ft | 14 kts | 251° |
| 2026-04-17 12:02 | 50.03546 | 8.53187 | 334 ft | 3 kts | 251° |
| 2026-04-17 12:02 | 50.03530 | 8.53117 | 336 ft | 10 kts | 251° |
| 2026-04-17 12:02 | 50.03499 | 8.52978 | 335 ft | 17 kts | 250° |
| 2026-04-17 12:02 | 50.03449 | 8.52776 | 335 ft | 23 kts | 248° |
| 2026-04-17 12:03 | 50.03339 | 8.52593 | 335 ft | 27 kts | 188° |
| 2026-04-17 12:03 | 50.03073 | 8.52596 | 335 ft | 65 kts | 180° |
| 2026-04-17 12:03 | 50.02400 | 8.52603 | 335 ft | 126 kts | 179° |
| 2026-04-17 12:03 | 50.01344 | 8.52596 | 366 ft | 173 kts | 181° |
| 2026-04-17 12:04 | 50.00131 | 8.52611 | 1013 ft | 169 kts | 180° |
| 2026-04-17 12:04 | 49.98984 | 8.52677 | 1851 ft | 162 kts | 178° |
| 2026-04-17 12:04 | 49.97811 | 8.52770 | 2319 ft | 178 kts | 178° |
| 2026-04-17 12:04 | 49.96494 | 8.52870 | 2651 ft | 200 kts | 178° |
| 2026-04-17 12:05 | 49.95028 | 8.52980 | 2995 ft | 221 kts | 178° |
| 2026-04-17 12:05 | 49.93483 | 8.53092 | 3626 ft | 227 kts | 178° |
| 2026-04-17 12:05 | 49.91833 | 8.53210 | 3963 ft | 252 kts | 178° |
| 2026-04-17 12:05 | 49.89982 | 8.53338 | 4014 ft | 270 kts | 178° |
| 2026-04-17 12:06 | 49.88162 | 8.53465 | 4134 ft | 250 kts | 178° |
| 2026-04-17 12:06 | 49.86456 | 8.53495 | 4604 ft | 251 kts | 182° |
| 2026-04-17 12:06 | 49.84673 | 8.53358 | 5086 ft | 260 kts | 184° |
| 2026-04-17 12:06 | 49.82852 | 8.53175 | 5722 ft | 264 kts | 184° |
| 2026-04-17 12:07 | 49.81013 | 8.52975 | 6377 ft | 267 kts | 184° |
| 2026-04-17 12:07 | 49.79152 | 8.52768 | 7008 ft | 270 kts | 184° |
| 2026-04-17 12:07 | 49.77265 | 8.52564 | 7627 ft | 273 kts | 184° |
| 2026-04-17 12:07 | 49.75363 | 8.52363 | 8240 ft | 276 kts | 184° |
| 2026-04-17 12:08 | 49.73457 | 8.52168 | 8826 ft | 280 kts | 184° |
| 2026-04-17 12:08 | 49.71505 | 8.51969 | 9416 ft | 283 kts | 184° |
| 2026-04-17 12:08 | 49.69526 | 8.51767 | 9977 ft | 287 kts | 184° |
| 2026-04-17 12:08 | 49.67461 | 8.51556 | 10441 ft | 295 kts | 184° |
| 2026-04-17 12:09 | 49.65411 | 8.51349 | 10552 ft | 313 kts | 184° |
| 2026-04-17 12:09 | 49.63172 | 8.51123 | 10679 ft | 330 kts | 184° |
| 2026-04-17 12:09 | 49.60824 | 8.50894 | 10803 ft | 347 kts | 184° |
| 2026-04-17 12:09 | 49.58361 | 8.50738 | 10953 ft | 361 kts | 182° |
| 2026-04-17 12:10 | 49.55824 | 8.50639 | 11340 ft | 367 kts | 182° |
| 2026-04-17 12:10 | 49.53291 | 8.50566 | 11806 ft | 370 kts | 182° |
| 2026-04-17 12:10 | 49.50709 | 8.50493 | 12304 ft | 373 kts | 182° |
| 2026-04-17 12:10 | 49.48108 | 8.50415 | 12790 ft | 376 kts | 182° |
| 2026-04-17 12:11 | 49.45480 | 8.50328 | 13280 ft | 379 kts | 182° |
| 2026-04-17 12:11 | 49.42838 | 8.50229 | 13753 ft | 382 kts | 182° |
| 2026-04-17 12:11 | 49.40198 | 8.50123 | 14191 ft | 384 kts | 182° |
| 2026-04-17 12:12 | 49.34790 | 8.49907 | 15049 ft | 389 kts | 182° |
| 2026-04-17 12:12 | 49.32074 | 8.49798 | 15495 ft | 392 kts | 182° |
| 2026-04-17 12:12 | 49.29342 | 8.49688 | 15941 ft | 394 kts | 182° |
| 2026-04-17 12:12 | 49.26599 | 8.49582 | 16377 ft | 396 kts | 182° |
| 2026-04-17 12:13 | 49.23872 | 8.49478 | 16798 ft | 398 kts | 182° |
| 2026-04-17 12:13 | 49.21094 | 8.49376 | 17200 ft | 400 kts | 182° |
| 2026-04-17 12:13 | 49.18304 | 8.49274 | 17595 ft | 403 kts | 182° |
| 2026-04-17 12:13 | 49.15490 | 8.49169 | 17990 ft | 405 kts | 182° |
| 2026-04-17 12:14 | 49.12667 | 8.49062 | 18384 ft | 407 kts | 182° |
| 2026-04-17 12:14 | 49.09830 | 8.48955 | 18733 ft | 409 kts | 182° |
| 2026-04-17 12:14 | 49.06974 | 8.48848 | 19069 ft | 412 kts | 182° |
| 2026-04-17 12:14 | 49.04108 | 8.48739 | 19381 ft | 414 kts | 183° |
| 2026-04-17 12:15 | 49.02290 | 8.48668 | 19581 ft | 415 kts | 183° |